sensor_id;sensor_type;location;lat;lon;timestamp;temperature;humidity
40253;DHT22;25972;51.854;4.534;2023-09-12T00:01:04;19.40;99.90
40253;DHT22;25972;51.854;4.534;2023-09-12T00:03:31;19.40;99.90
40253;DHT22;25972;51.854;4.534;2023-09-12T00:05:59;19.30;99.90
40253;DHT22;25972;51.854;4.534;2023-09-12T00:08:25;19.30;99.90
40253;DHT22;25972;51.854;4.534;2023-09-12T00:11:02;19.30;99.90
40253;DHT22;25972;51.854;4.534;2023-09-12T00:13:28;19.20;99.90
40253;DHT22;25972;51.854;4.534;2023-09-12T00:15:56;19.20;99.90
40253;DHT22;25972;51.854;4.534;2023-09-12T00:18:22;19.20;99.90
40253;DHT22;25972;51.854;4.534;2023-09-12T00:20:49;19.20;99.90
40253;DHT22;25972;51.854;4.534;2023-09-12T00:23:16;19.20;99.90
40253;DHT22;25972;51.854;4.534;2023-09-12T00:25:42;19.20;99.90
40253;DHT22;25972;51.854;4.534;2023-09-12T00:28:08;19.20;99.90
40253;DHT22;25972;51.854;4.534;2023-09-12T00:30:34;19.20;99.90
40253;DHT22;25972;51.854;4.534;2023-09-12T00:33:02;19.10;99.90
40253;DHT22;25972;51.854;4.534;2023-09-12T00:35:28;19.10;99.90
40253;DHT22;25972;51.854;4.534;2023-09-12T00:37:54;19.10;99.90
40253;DHT22;25972;51.854;4.534;2023-09-12T00:40:22;19.10;99.90
40253;DHT22;25972;51.854;4.534;2023-09-12T00:42:48;19.10;99.90
40253;DHT22;25972;51.854;4.534;2023-09-12T00:45:15;19.10;99.90
40253;DHT22;25972;51.854;4.534;2023-09-12T00:47:42;19.00;99.90
40253;DHT22;25972;51.854;4.534;2023-09-12T00:50:10;19.00;99.90
40253;DHT22;25972;51.854;4.534;2023-09-12T00:52:38;19.00;99.90
40253;DHT22;25972;51.854;4.534;2023-09-12T00:55:06;19.00;99.90
40253;DHT22;25972;51.854;4.534;2023-09-12T00:57:33;18.90;99.90
40253;DHT22;25972;51.854;4.534;2023-09-12T01:00:02;18.90;99.90
40253;DHT22;25972;51.854;4.534;2023-09-12T01:02:37;18.90;99.90
40253;DHT22;25972;51.854;4.534;2023-09-12T01:05:03;18.90;99.90
40253;DHT22;25972;51.854;4.534;2023-09-12T01:07:32;18.90;99.90
40253;DHT22;25972;51.854;4.534;2023-09-12T01:09:58;18.90;99.90
40253;DHT22;25972;51.854;4.534;2023-09-12T01:12:25;18.90;99.90
40253;DHT22;25972;51.854;4.534;2023-09-12T01:14:51;18.80;99.90
40253;DHT22;25972;51.854;4.534;2023-09-12T01:17:17;18.80;99.90
40253;DHT22;25972;51.854;4.534;2023-09-12T01:19:43;18.80;99.90
40253;DHT22;25972;51.854;4.534;2023-09-12T01:22:22;18.80;99.90
40253;DHT22;25972;51.854;4.534;2023-09-12T01:25:11;18.80;99.90
40253;DHT22;25972;51.854;4.534;2023-09-12T01:27:42;18.80;99.90
40253;DHT22;25972;51.854;4.534;2023-09-12T01:30:10;18.80;99.90
40253;DHT22;25972;51.854;4.534;2023-09-12T01:32:37;18.70;99.90
40253;DHT22;25972;51.854;4.534;2023-09-12T01:35:09;18.70;99.90
40253;DHT22;25972;51.854;4.534;2023-09-12T01:37:35;18.70;99.90
40253;DHT22;25972;51.854;4.534;2023-09-12T01:40:03;18.60;99.90
40253;DHT22;25972;51.854;4.534;2023-09-12T01:42:34;18.70;99.90
40253;DHT22;25972;51.854;4.534;2023-09-12T01:45:04;18.60;99.90
40253;DHT22;25972;51.854;4.534;2023-09-12T01:47:31;18.70;99.90
40253;DHT22;25972;51.854;4.534;2023-09-12T01:50:01;18.60;99.90
40253;DHT22;25972;51.854;4.534;2023-09-12T01:52:28;18.60;99.90
40253;DHT22;25972;51.854;4.534;2023-09-12T01:54:55;18.60;99.90
40253;DHT22;25972;51.854;4.534;2023-09-12T01:57:21;18.60;99.90
40253;DHT22;25972;51.854;4.534;2023-09-12T01:59:48;18.60;99.90
40253;DHT22;25972;51.854;4.534;2023-09-12T02:02:18;18.60;99.90
40253;DHT22;25972;51.854;4.534;2023-09-12T02:04:52;18.60;99.90
40253;DHT22;25972;51.854;4.534;2023-09-12T02:07:20;18.60;99.90
40253;DHT22;25972;51.854;4.534;2023-09-12T02:09:48;18.60;99.90
40253;DHT22;25972;51.854;4.534;2023-09-12T02:12:15;18.60;99.90
40253;DHT22;25972;51.854;4.534;2023-09-12T02:14:41;18.50;99.90
40253;DHT22;25972;51.854;4.534;2023-09-12T02:17:07;18.50;99.90
40253;DHT22;25972;51.854;4.534;2023-09-12T02:19:35;18.50;99.90
40253;DHT22;25972;51.854;4.534;2023-09-12T02:22:01;18.50;99.90
40253;DHT22;25972;51.854;4.534;2023-09-12T02:24:27;18.50;99.90
40253;DHT22;25972;51.854;4.534;2023-09-12T02:26:53;18.50;99.90
40253;DHT22;25972;51.854;4.534;2023-09-12T02:29:20;18.50;99.90
40253;DHT22;25972;51.854;4.534;2023-09-12T02:31:46;18.50;99.90
40253;DHT22;25972;51.854;4.534;2023-09-12T02:34:12;18.50;99.90
40253;DHT22;25972;51.854;4.534;2023-09-12T02:36:40;18.40;99.90
40253;DHT22;25972;51.854;4.534;2023-09-12T02:39:07;18.40;99.90
40253;DHT22;25972;51.854;4.534;2023-09-12T02:41:33;18.40;99.90
40253;DHT22;25972;51.854;4.534;2023-09-12T02:43:59;18.50;99.90
40253;DHT22;25972;51.854;4.534;2023-09-12T02:46:25;18.50;99.90
40253;DHT22;25972;51.854;4.534;2023-09-12T02:48:51;18.50;99.90
40253;DHT22;25972;51.854;4.534;2023-09-12T02:51:17;18.50;99.90
40253;DHT22;25972;51.854;4.534;2023-09-12T02:53:45;18.50;99.90
40253;DHT22;25972;51.854;4.534;2023-09-12T02:56:12;18.60;99.90
40253;DHT22;25972;51.854;4.534;2023-09-12T02:58:39;18.50;99.90
40253;DHT22;25972;51.854;4.534;2023-09-12T03:01:05;18.50;99.90
40253;DHT22;25972;51.854;4.534;2023-09-12T03:03:32;18.60;99.90
40253;DHT22;25972;51.854;4.534;2023-09-12T03:05:59;18.60;99.90
40253;DHT22;25972;51.854;4.534;2023-09-12T03:08:26;18.60;99.90
40253;DHT22;25972;51.854;4.534;2023-09-12T03:10:55;18.70;99.90
40253;DHT22;25972;51.854;4.534;2023-09-12T03:13:23;18.70;99.90
40253;DHT22;25972;51.854;4.534;2023-09-12T03:15:50;18.70;99.90
40253;DHT22;25972;51.854;4.534;2023-09-12T03:18:17;18.70;99.90
40253;DHT22;25972;51.854;4.534;2023-09-12T03:20:43;18.70;99.90
40253;DHT22;25972;51.854;4.534;2023-09-12T03:23:14;18.70;99.90
40253;DHT22;25972;51.854;4.534;2023-09-12T03:25:41;18.70;99.90
40253;DHT22;25972;51.854;4.534;2023-09-12T03:28:08;18.70;99.90
40253;DHT22;25972;51.854;4.534;2023-09-12T03:30:35;18.80;99.90
40253;DHT22;25972;51.854;4.534;2023-09-12T03:33:04;18.70;99.90
40253;DHT22;25972;51.854;4.534;2023-09-12T03:35:32;18.70;99.90
40253;DHT22;25972;51.854;4.534;2023-09-12T03:37:59;18.70;99.90
40253;DHT22;25972;51.854;4.534;2023-09-12T03:40:27;18.70;99.90
40253;DHT22;25972;51.854;4.534;2023-09-12T03:42:53;18.70;99.90
40253;DHT22;25972;51.854;4.534;2023-09-12T03:45:21;18.70;99.90
40253;DHT22;25972;51.854;4.534;2023-09-12T03:47:47;18.70;99.90
40253;DHT22;25972;51.854;4.534;2023-09-12T03:50:15;18.70;99.90
40253;DHT22;25972;51.854;4.534;2023-09-12T03:52:40;18.70;99.90
40253;DHT22;25972;51.854;4.534;2023-09-12T03:55:08;18.70;99.90
40253;DHT22;25972;51.854;4.534;2023-09-12T03:57:34;18.70;99.90
40253;DHT22;25972;51.854;4.534;2023-09-12T04:00:00;18.70;99.90
40253;DHT22;25972;51.854;4.534;2023-09-12T04:02:28;18.70;99.90
40253;DHT22;25972;51.854;4.534;2023-09-12T04:04:55;18.70;99.90
40253;DHT22;25972;51.854;4.534;2023-09-12T04:07:25;18.70;99.90
40253;DHT22;25972;51.854;4.534;2023-09-12T04:09:51;18.70;99.90
40253;DHT22;25972;51.854;4.534;2023-09-12T04:12:17;18.70;99.90
40253;DHT22;25972;51.854;4.534;2023-09-12T04:14:43;18.70;99.90
40253;DHT22;25972;51.854;4.534;2023-09-12T04:17:11;18.70;99.90
40253;DHT22;25972;51.854;4.534;2023-09-12T04:19:38;18.70;99.90
40253;DHT22;25972;51.854;4.534;2023-09-12T04:22:04;18.70;99.90
40253;DHT22;25972;51.854;4.534;2023-09-12T04:24:31;18.70;99.90
40253;DHT22;25972;51.854;4.534;2023-09-12T04:26:57;18.70;99.90
40253;DHT22;25972;51.854;4.534;2023-09-12T04:29:23;18.70;99.90
40253;DHT22;25972;51.854;4.534;2023-09-12T04:31:52;18.70;99.90
40253;DHT22;25972;51.854;4.534;2023-09-12T04:34:24;18.70;99.90
40253;DHT22;25972;51.854;4.534;2023-09-12T04:36:52;18.70;99.90
40253;DHT22;25972;51.854;4.534;2023-09-12T04:39:23;18.80;99.90
40253;DHT22;25972;51.854;4.534;2023-09-12T04:41:49;18.80;99.90
40253;DHT22;25972;51.854;4.534;2023-09-12T04:44:16;18.80;99.90
40253;DHT22;25972;51.854;4.534;2023-09-12T04:46:43;18.80;99.90
40253;DHT22;25972;51.854;4.534;2023-09-12T04:49:09;18.80;99.90
40253;DHT22;25972;51.854;4.534;2023-09-12T04:51:36;18.90;99.90
40253;DHT22;25972;51.854;4.534;2023-09-12T04:54:04;18.90;99.90
40253;DHT22;25972;51.854;4.534;2023-09-12T04:56:31;18.90;99.90
40253;DHT22;25972;51.854;4.534;2023-09-12T04:58:57;18.90;99.90
40253;DHT22;25972;51.854;4.534;2023-09-12T05:01:23;18.90;99.90
40253;DHT22;25972;51.854;4.534;2023-09-12T05:03:51;19.00;99.90
40253;DHT22;25972;51.854;4.534;2023-09-12T05:06:18;19.00;99.90
40253;DHT22;25972;51.854;4.534;2023-09-12T05:08:44;19.00;99.90
40253;DHT22;25972;51.854;4.534;2023-09-12T05:11:12;19.00;99.90
40253;DHT22;25972;51.854;4.534;2023-09-12T05:13:39;19.00;99.90
40253;DHT22;25972;51.854;4.534;2023-09-12T05:16:05;19.10;99.90
40253;DHT22;25972;51.854;4.534;2023-09-12T05:18:31;19.10;99.90
40253;DHT22;25972;51.854;4.534;2023-09-12T05:20:57;19.10;99.90
40253;DHT22;25972;51.854;4.534;2023-09-12T05:23:24;19.10;99.90
40253;DHT22;25972;51.854;4.534;2023-09-12T05:25:50;19.10;99.90
40253;DHT22;25972;51.854;4.534;2023-09-12T05:28:18;19.20;99.90
40253;DHT22;25972;51.854;4.534;2023-09-12T05:30:48;19.10;99.90
40253;DHT22;25972;51.854;4.534;2023-09-12T05:33:17;19.20;99.90
40253;DHT22;25972;51.854;4.534;2023-09-12T05:35:43;19.20;99.90
40253;DHT22;25972;51.854;4.534;2023-09-12T05:38:13;19.20;99.90
40253;DHT22;25972;51.854;4.534;2023-09-12T05:40:39;19.20;99.90
40253;DHT22;25972;51.854;4.534;2023-09-12T05:43:06;19.20;99.90
40253;DHT22;25972;51.854;4.534;2023-09-12T05:45:34;19.30;99.90
40253;DHT22;25972;51.854;4.534;2023-09-12T05:48:01;19.30;99.90
40253;DHT22;25972;51.854;4.534;2023-09-12T05:50:29;19.30;99.90
40253;DHT22;25972;51.854;4.534;2023-09-12T05:52:55;19.30;99.90
40253;DHT22;25972;51.854;4.534;2023-09-12T05:55:22;19.40;99.90
40253;DHT22;25972;51.854;4.534;2023-09-12T05:57:49;19.40;99.90
40253;DHT22;25972;51.854;4.534;2023-09-12T06:00:20;19.40;99.90
40253;DHT22;25972;51.854;4.534;2023-09-12T06:02:48;19.40;99.90
40253;DHT22;25972;51.854;4.534;2023-09-12T06:05:14;19.40;99.90
40253;DHT22;25972;51.854;4.534;2023-09-12T06:07:40;19.40;99.90
40253;DHT22;25972;51.854;4.534;2023-09-12T06:10:08;19.40;99.90
40253;DHT22;25972;51.854;4.534;2023-09-12T06:12:35;19.50;99.90
40253;DHT22;25972;51.854;4.534;2023-09-12T06:15:05;19.40;99.90
40253;DHT22;25972;51.854;4.534;2023-09-12T06:17:31;19.40;99.90
40253;DHT22;25972;51.854;4.534;2023-09-12T06:19:59;19.50;99.90
40253;DHT22;25972;51.854;4.534;2023-09-12T06:22:25;19.50;99.90
40253;DHT22;25972;51.854;4.534;2023-09-12T06:24:52;19.50;99.90
40253;DHT22;25972;51.854;4.534;2023-09-12T06:27:18;19.50;99.90
40253;DHT22;25972;51.854;4.534;2023-09-12T06:29:44;19.50;99.90
40253;DHT22;25972;51.854;4.534;2023-09-12T06:32:11;19.60;99.90
40253;DHT22;25972;51.854;4.534;2023-09-12T06:34:38;19.60;99.90
40253;DHT22;25972;51.854;4.534;2023-09-12T06:37:06;19.60;99.90
40253;DHT22;25972;51.854;4.534;2023-09-12T06:39:34;19.70;99.90
40253;DHT22;25972;51.854;4.534;2023-09-12T06:42:00;19.80;99.90
40253;DHT22;25972;51.854;4.534;2023-09-12T06:44:27;19.90;99.90
40253;DHT22;25972;51.854;4.534;2023-09-12T06:46:53;20.00;99.90
40253;DHT22;25972;51.854;4.534;2023-09-12T06:49:23;20.00;99.90
40253;DHT22;25972;51.854;4.534;2023-09-12T06:51:50;20.10;99.90
40253;DHT22;25972;51.854;4.534;2023-09-12T06:54:17;20.10;99.90
40253;DHT22;25972;51.854;4.534;2023-09-12T06:56:44;20.20;99.90
40253;DHT22;25972;51.854;4.534;2023-09-12T06:59:11;20.20;99.90
40253;DHT22;25972;51.854;4.534;2023-09-12T07:01:37;20.30;99.90
40253;DHT22;25972;51.854;4.534;2023-09-12T07:04:04;20.20;99.90
40253;DHT22;25972;51.854;4.534;2023-09-12T07:06:31;20.20;99.90
40253;DHT22;25972;51.854;4.534;2023-09-12T07:08:58;20.20;99.90
40253;DHT22;25972;51.854;4.534;2023-09-12T07:11:26;20.20;99.90
40253;DHT22;25972;51.854;4.534;2023-09-12T07:13:53;20.20;99.90
40253;DHT22;25972;51.854;4.534;2023-09-12T07:16:19;20.20;99.90
40253;DHT22;25972;51.854;4.534;2023-09-12T07:18:47;20.30;99.90
40253;DHT22;25972;51.854;4.534;2023-09-12T07:21:14;20.30;99.90
40253;DHT22;25972;51.854;4.534;2023-09-12T07:23:41;20.30;99.90
40253;DHT22;25972;51.854;4.534;2023-09-12T07:26:13;20.40;99.90
40253;DHT22;25972;51.854;4.534;2023-09-12T07:28:44;20.50;99.90
40253;DHT22;25972;51.854;4.534;2023-09-12T07:31:11;20.50;99.90
40253;DHT22;25972;51.854;4.534;2023-09-12T07:33:37;20.50;99.90
40253;DHT22;25972;51.854;4.534;2023-09-12T07:36:04;20.60;99.90
40253;DHT22;25972;51.854;4.534;2023-09-12T07:38:30;20.70;99.90
40253;DHT22;25972;51.854;4.534;2023-09-12T07:41:00;20.70;99.90
40253;DHT22;25972;51.854;4.534;2023-09-12T07:43:26;20.70;99.90
40253;DHT22;25972;51.854;4.534;2023-09-12T07:45:57;20.80;99.90
40253;DHT22;25972;51.854;4.534;2023-09-12T07:48:23;20.70;99.90
40253;DHT22;25972;51.854;4.534;2023-09-12T07:50:49;20.70;99.90
40253;DHT22;25972;51.854;4.534;2023-09-12T07:53:17;20.70;99.90
40253;DHT22;25972;51.854;4.534;2023-09-12T07:55:43;20.70;99.90
40253;DHT22;25972;51.854;4.534;2023-09-12T07:58:13;20.70;99.90
40253;DHT22;25972;51.854;4.534;2023-09-12T08:00:39;20.70;99.90
40253;DHT22;25972;51.854;4.534;2023-09-12T08:03:07;20.70;99.90
40253;DHT22;25972;51.854;4.534;2023-09-12T08:05:34;20.80;99.90
40253;DHT22;25972;51.854;4.534;2023-09-12T08:08:00;20.80;99.90
40253;DHT22;25972;51.854;4.534;2023-09-12T08:10:27;20.90;99.90
40253;DHT22;25972;51.854;4.534;2023-09-12T08:12:53;20.90;99.90
40253;DHT22;25972;51.854;4.534;2023-09-12T08:15:19;21.00;99.90
40253;DHT22;25972;51.854;4.534;2023-09-12T08:17:46;21.10;99.90
40253;DHT22;25972;51.854;4.534;2023-09-12T08:20:19;21.20;99.90
40253;DHT22;25972;51.854;4.534;2023-09-12T08:22:46;21.30;99.90
40253;DHT22;25972;51.854;4.534;2023-09-12T08:25:12;21.50;99.90
40253;DHT22;25972;51.854;4.534;2023-09-12T08:27:43;21.80;99.90
40253;DHT22;25972;51.854;4.534;2023-09-12T08:30:12;22.00;99.90
40253;DHT22;25972;51.854;4.534;2023-09-12T08:32:42;22.10;99.90
40253;DHT22;25972;51.854;4.534;2023-09-12T08:35:12;22.20;99.90
40253;DHT22;25972;51.854;4.534;2023-09-12T08:37:42;22.20;99.90
40253;DHT22;25972;51.854;4.534;2023-09-12T08:40:09;22.10;99.90
40253;DHT22;25972;51.854;4.534;2023-09-12T08:42:39;22.10;99.90
40253;DHT22;25972;51.854;4.534;2023-09-12T08:45:11;22.20;99.90
40253;DHT22;25972;51.854;4.534;2023-09-12T08:47:41;22.30;99.90
40253;DHT22;25972;51.854;4.534;2023-09-12T08:50:10;22.40;99.90
40253;DHT22;25972;51.854;4.534;2023-09-12T08:52:39;22.40;99.90
40253;DHT22;25972;51.854;4.534;2023-09-12T08:55:07;22.40;99.90
40253;DHT22;25972;51.854;4.534;2023-09-12T08:57:36;22.50;99.90
40253;DHT22;25972;51.854;4.534;2023-09-12T09:00:05;22.40;99.90
40253;DHT22;25972;51.854;4.534;2023-09-12T09:02:34;22.50;99.90
40253;DHT22;25972;51.854;4.534;2023-09-12T09:05:02;22.40;99.90
40253;DHT22;25972;51.854;4.534;2023-09-12T09:07:32;22.40;99.90
40253;DHT22;25972;51.854;4.534;2023-09-12T09:10:03;22.50;99.90
40253;DHT22;25972;51.854;4.534;2023-09-12T09:12:33;22.50;99.90
40253;DHT22;25972;51.854;4.534;2023-09-12T09:15:21;22.70;99.90
40253;DHT22;25972;51.854;4.534;2023-09-12T09:17:48;22.60;99.90
40253;DHT22;25972;51.854;4.534;2023-09-12T09:20:26;22.60;99.90
40253;DHT22;25972;51.854;4.534;2023-09-12T09:23:00;22.60;99.90
40253;DHT22;25972;51.854;4.534;2023-09-12T09:25:28;22.60;99.90
40253;DHT22;25972;51.854;4.534;2023-09-12T09:27:55;22.60;99.90
40253;DHT22;25972;51.854;4.534;2023-09-12T09:30:39;22.60;99.90
40253;DHT22;25972;51.854;4.534;2023-09-12T09:33:06;22.60;99.90
40253;DHT22;25972;51.854;4.534;2023-09-12T09:35:33;22.80;99.90
40253;DHT22;25972;51.854;4.534;2023-09-12T09:37:59;22.80;99.90
40253;DHT22;25972;51.854;4.534;2023-09-12T09:40:26;22.90;99.90
40253;DHT22;25972;51.854;4.534;2023-09-12T09:42:56;22.90;99.90
40253;DHT22;25972;51.854;4.534;2023-09-12T09:45:22;22.90;99.90
40253;DHT22;25972;51.854;4.534;2023-09-12T09:47:49;23.00;99.90
40253;DHT22;25972;51.854;4.534;2023-09-12T09:50:17;22.80;99.90
40253;DHT22;25972;51.854;4.534;2023-09-12T09:52:44;22.90;99.90
40253;DHT22;25972;51.854;4.534;2023-09-12T09:55:13;22.90;99.90
40253;DHT22;25972;51.854;4.534;2023-09-12T09:57:41;23.10;99.90
40253;DHT22;25972;51.854;4.534;2023-09-12T10:00:09;23.10;99.90
40253;DHT22;25972;51.854;4.534;2023-09-12T10:02:42;23.20;99.90
40253;DHT22;25972;51.854;4.534;2023-09-12T10:05:10;23.40;99.90
40253;DHT22;25972;51.854;4.534;2023-09-12T10:07:37;23.50;99.90
40253;DHT22;25972;51.854;4.534;2023-09-12T10:10:06;23.50;99.90
40253;DHT22;25972;51.854;4.534;2023-09-12T10:12:33;23.60;99.90
40253;DHT22;25972;51.854;4.534;2023-09-12T10:15:01;23.50;99.90
40253;DHT22;25972;51.854;4.534;2023-09-12T10:17:36;23.50;99.90
40253;DHT22;25972;51.854;4.534;2023-09-12T10:20:04;23.60;99.90
40253;DHT22;25972;51.854;4.534;2023-09-12T10:22:46;23.50;99.90
40253;DHT22;25972;51.854;4.534;2023-09-12T10:25:16;23.60;99.90
40253;DHT22;25972;51.854;4.534;2023-09-12T10:27:46;23.60;99.90
40253;DHT22;25972;51.854;4.534;2023-09-12T10:30:13;23.60;99.90
40253;DHT22;25972;51.854;4.534;2023-09-12T10:32:42;23.70;99.90
40253;DHT22;25972;51.854;4.534;2023-09-12T10:35:11;23.80;99.90
40253;DHT22;25972;51.854;4.534;2023-09-12T10:37:38;23.80;99.90
40253;DHT22;25972;51.854;4.534;2023-09-12T10:40:08;23.60;99.90
40253;DHT22;25972;51.854;4.534;2023-09-12T10:42:35;23.60;99.90
40253;DHT22;25972;51.854;4.534;2023-09-12T10:45:06;23.70;99.90
40253;DHT22;25972;51.854;4.534;2023-09-12T10:47:35;23.80;99.90
40253;DHT22;25972;51.854;4.534;2023-09-12T10:50:03;24.00;99.90
40253;DHT22;25972;51.854;4.534;2023-09-12T10:52:29;24.20;99.90
40253;DHT22;25972;51.854;4.534;2023-09-12T10:54:56;24.20;99.90
40253;DHT22;25972;51.854;4.534;2023-09-12T10:57:24;24.40;99.90
40253;DHT22;25972;51.854;4.534;2023-09-12T11:00:12;24.50;99.90
40253;DHT22;25972;51.854;4.534;2023-09-12T11:02:39;24.70;99.90
40253;DHT22;25972;51.854;4.534;2023-09-12T11:05:36;24.90;99.90
40253;DHT22;25972;51.854;4.534;2023-09-12T11:08:03;25.00;99.90
40253;DHT22;25972;51.854;4.534;2023-09-12T11:10:32;25.30;99.90
40253;DHT22;25972;51.854;4.534;2023-09-12T11:12:58;25.40;99.90
40253;DHT22;25972;51.854;4.534;2023-09-12T11:15:26;25.60;99.90
40253;DHT22;25972;51.854;4.534;2023-09-12T11:18:01;25.80;99.90
40253;DHT22;25972;51.854;4.534;2023-09-12T11:20:49;25.80;99.90
40253;DHT22;25972;51.854;4.534;2023-09-12T11:23:16;25.70;99.90
40253;DHT22;25972;51.854;4.534;2023-09-12T11:25:44;25.60;99.90
40253;DHT22;25972;51.854;4.534;2023-09-12T11:28:10;25.60;99.90
40253;DHT22;25972;51.854;4.534;2023-09-12T11:30:36;25.40;99.90
40253;DHT22;25972;51.854;4.534;2023-09-12T11:33:08;25.30;99.90
40253;DHT22;25972;51.854;4.534;2023-09-12T11:35:38;25.10;99.90
40253;DHT22;25972;51.854;4.534;2023-09-12T11:38:10;24.90;99.90
40253;DHT22;25972;51.854;4.534;2023-09-12T11:40:44;24.90;99.90
40253;DHT22;25972;51.854;4.534;2023-09-12T11:43:23;24.70;99.90
40253;DHT22;25972;51.854;4.534;2023-09-12T11:45:50;24.80;99.90
40253;DHT22;25972;51.854;4.534;2023-09-12T11:48:17;24.80;99.90
40253;DHT22;25972;51.854;4.534;2023-09-12T11:50:49;25.00;99.90
40253;DHT22;25972;51.854;4.534;2023-09-12T11:53:23;25.00;99.90
40253;DHT22;25972;51.854;4.534;2023-09-12T11:55:53;25.10;99.90
40253;DHT22;25972;51.854;4.534;2023-09-12T11:58:20;25.10;99.90
40253;DHT22;25972;51.854;4.534;2023-09-12T12:00:51;25.20;99.90
40253;DHT22;25972;51.854;4.534;2023-09-12T12:03:19;25.20;99.90
40253;DHT22;25972;51.854;4.534;2023-09-12T12:05:49;25.30;99.90
40253;DHT22;25972;51.854;4.534;2023-09-12T12:08:17;25.40;99.90
40253;DHT22;25972;51.854;4.534;2023-09-12T12:10:43;25.50;99.90
40253;DHT22;25972;51.854;4.534;2023-09-12T12:13:17;25.50;99.90
40253;DHT22;25972;51.854;4.534;2023-09-12T12:15:43;25.50;99.90
40253;DHT22;25972;51.854;4.534;2023-09-12T12:18:09;25.70;99.90
40253;DHT22;25972;51.854;4.534;2023-09-12T12:20:36;25.90;99.90
40253;DHT22;25972;51.854;4.534;2023-09-12T12:23:04;25.90;99.90
40253;DHT22;25972;51.854;4.534;2023-09-12T12:25:32;25.80;99.90
40253;DHT22;25972;51.854;4.534;2023-09-12T12:27:59;25.90;99.90
40253;DHT22;25972;51.854;4.534;2023-09-12T12:30:30;26.00;99.90
40253;DHT22;25972;51.854;4.534;2023-09-12T12:32:57;26.10;99.90
40253;DHT22;25972;51.854;4.534;2023-09-12T12:35:24;26.20;99.90
40253;DHT22;25972;51.854;4.534;2023-09-12T12:37:53;26.20;99.90
40253;DHT22;25972;51.854;4.534;2023-09-12T12:40:24;26.20;99.90
40253;DHT22;25972;51.854;4.534;2023-09-12T12:42:51;26.00;99.90
40253;DHT22;25972;51.854;4.534;2023-09-12T12:45:19;26.00;99.90
40253;DHT22;25972;51.854;4.534;2023-09-12T12:47:45;26.20;99.90
40253;DHT22;25972;51.854;4.534;2023-09-12T12:50:12;26.10;99.90
40253;DHT22;25972;51.854;4.534;2023-09-12T12:52:38;26.00;95.90
40253;DHT22;25972;51.854;4.534;2023-09-12T12:55:06;25.80;92.20
40253;DHT22;25972;51.854;4.534;2023-09-12T12:57:36;25.40;94.10
40253;DHT22;25972;51.854;4.534;2023-09-12T13:00:04;25.50;99.90
40253;DHT22;25972;51.854;4.534;2023-09-12T13:02:30;25.60;99.90
40253;DHT22;25972;51.854;4.534;2023-09-12T13:04:57;25.70;99.90
40253;DHT22;25972;51.854;4.534;2023-09-12T13:07:23;26.00;99.90
40253;DHT22;25972;51.854;4.534;2023-09-12T13:09:53;25.90;99.90
40253;DHT22;25972;51.854;4.534;2023-09-12T13:12:21;26.30;99.90
40253;DHT22;25972;51.854;4.534;2023-09-12T13:14:49;26.10;46.40
40253;DHT22;25972;51.854;4.534;2023-09-12T13:17:22;26.30;54.40
40253;DHT22;25972;51.854;4.534;2023-09-12T13:19:52;26.30;33.60
40253;DHT22;25972;51.854;4.534;2023-09-12T13:22:21;26.50;18.70
40253;DHT22;25972;51.854;4.534;2023-09-12T13:24:48;26.80;14.70
40253;DHT22;25972;51.854;4.534;2023-09-12T13:27:15;26.70;1.00
40253;DHT22;25972;51.854;4.534;2023-09-12T13:29:44;26.70;1.00
40253;DHT22;25972;51.854;4.534;2023-09-12T13:32:12;26.90;1.00
40253;DHT22;25972;51.854;4.534;2023-09-12T13:34:41;27.20;1.00
40253;DHT22;25972;51.854;4.534;2023-09-12T13:37:07;27.10;1.00
40253;DHT22;25972;51.854;4.534;2023-09-12T13:39:34;27.20;1.00
40253;DHT22;25972;51.854;4.534;2023-09-12T13:42:00;27.10;1.00
40253;DHT22;25972;51.854;4.534;2023-09-12T13:44:29;27.00;1.00
40253;DHT22;25972;51.854;4.534;2023-09-12T13:46:55;27.10;1.00
40253;DHT22;25972;51.854;4.534;2023-09-12T13:49:23;27.20;1.00
40253;DHT22;25972;51.854;4.534;2023-09-12T13:51:49;27.10;1.00
40253;DHT22;25972;51.854;4.534;2023-09-12T13:54:21;27.10;1.00
40253;DHT22;25972;51.854;4.534;2023-09-12T13:56:48;27.00;1.00
40253;DHT22;25972;51.854;4.534;2023-09-12T13:59:17;27.00;1.00
40253;DHT22;25972;51.854;4.534;2023-09-12T14:01:46;26.90;1.00
40253;DHT22;25972;51.854;4.534;2023-09-12T14:04:12;26.60;1.00
40253;DHT22;25972;51.854;4.534;2023-09-12T14:06:41;26.70;1.00
40253;DHT22;25972;51.854;4.534;2023-09-12T14:09:07;26.80;1.00
40253;DHT22;25972;51.854;4.534;2023-09-12T14:11:34;27.00;1.00
40253;DHT22;25972;51.854;4.534;2023-09-12T14:14:00;27.00;1.00
40253;DHT22;25972;51.854;4.534;2023-09-12T14:16:26;27.00;1.00
40253;DHT22;25972;51.854;4.534;2023-09-12T14:18:52;27.00;1.00
40253;DHT22;25972;51.854;4.534;2023-09-12T14:21:22;27.00;1.00
40253;DHT22;25972;51.854;4.534;2023-09-12T14:23:50;27.10;1.00
40253;DHT22;25972;51.854;4.534;2023-09-12T14:26:16;27.10;1.00
40253;DHT22;25972;51.854;4.534;2023-09-12T14:28:42;27.10;1.00
40253;DHT22;25972;51.854;4.534;2023-09-12T14:31:08;27.20;1.00
40253;DHT22;25972;51.854;4.534;2023-09-12T14:33:39;27.30;1.00
40253;DHT22;25972;51.854;4.534;2023-09-12T14:36:07;27.10;1.00
40253;DHT22;25972;51.854;4.534;2023-09-12T14:38:34;27.10;1.00
40253;DHT22;25972;51.854;4.534;2023-09-12T14:41:02;27.00;1.00
40253;DHT22;25972;51.854;4.534;2023-09-12T14:43:28;26.90;1.00
40253;DHT22;25972;51.854;4.534;2023-09-12T14:45:54;26.90;1.00
40253;DHT22;25972;51.854;4.534;2023-09-12T14:48:24;26.80;1.00
40253;DHT22;25972;51.854;4.534;2023-09-12T14:50:50;26.60;1.00
40253;DHT22;25972;51.854;4.534;2023-09-12T14:53:17;26.40;1.00
40253;DHT22;25972;51.854;4.534;2023-09-12T14:55:44;26.10;1.00
40253;DHT22;25972;51.854;4.534;2023-09-12T14:58:11;25.90;1.00
40253;DHT22;25972;51.854;4.534;2023-09-12T15:00:39;25.70;1.00
40253;DHT22;25972;51.854;4.534;2023-09-12T15:03:06;25.40;1.00
40253;DHT22;25972;51.854;4.534;2023-09-12T15:05:32;25.30;11.00
40253;DHT22;25972;51.854;4.534;2023-09-12T15:07:58;25.30;26.80
40253;DHT22;25972;51.854;4.534;2023-09-12T15:10:25;25.10;36.70
40253;DHT22;25972;51.854;4.534;2023-09-12T15:12:51;25.10;42.70
40253;DHT22;25972;51.854;4.534;2023-09-12T15:15:23;25.00;55.50
40253;DHT22;25972;51.854;4.534;2023-09-12T15:17:53;24.80;64.50
40253;DHT22;25972;51.854;4.534;2023-09-12T15:20:21;24.60;70.40
40253;DHT22;25972;51.854;4.534;2023-09-12T15:22:47;24.40;79.60
40253;DHT22;25972;51.854;4.534;2023-09-12T15:25:14;24.30;94.00
40253;DHT22;25972;51.854;4.534;2023-09-12T15:27:40;24.10;98.10
40253;DHT22;25972;51.854;4.534;2023-09-12T15:30:07;23.90;99.90
40253;DHT22;25972;51.854;4.534;2023-09-12T15:32:35;23.80;99.90
40253;DHT22;25972;51.854;4.534;2023-09-12T15:35:01;23.70;99.90
40253;DHT22;25972;51.854;4.534;2023-09-12T15:37:27;23.60;99.90